sensor_id;sensor_type;location;lat;lon;timestamp;P1;durP1;ratioP1;P2;durP2;ratioP2
48925;SDS011;39838;59.938;30.642;2023-04-25T00:00:13;27.52;;;19.67;;
48925;SDS011;39838;59.938;30.642;2023-04-25T00:02:41;28.40;;;19.65;;
48925;SDS011;39838;59.938;30.642;2023-04-25T00:05:09;29.95;;;19.10;;
48925;SDS011;39838;59.938;30.642;2023-04-25T00:07:37;28.95;;;18.17;;
48925;SDS011;39838;59.938;30.642;2023-04-25T00:10:04;32.53;;;18.45;;
48925;SDS011;39838;59.938;30.642;2023-04-25T00:12:32;28.15;;;17.92;;
48925;SDS011;39838;59.938;30.642;2023-04-25T00:15:01;28.70;;;18.02;;
48925;SDS011;39838;59.938;30.642;2023-04-25T00:17:32;28.33;;;17.42;;
48925;SDS011;39838;59.938;30.642;2023-04-25T00:20:00;24.50;;;17.85;;
48925;SDS011;39838;59.938;30.642;2023-04-25T00:22:32;28.33;;;17.52;;
48925;SDS011;39838;59.938;30.642;2023-04-25T00:25:00;28.75;;;17.30;;
48925;SDS011;39838;59.938;30.642;2023-04-25T00:27:29;26.75;;;18.00;;
48925;SDS011;39838;59.938;30.642;2023-04-25T00:29:56;26.98;;;17.42;;
48925;SDS011;39838;59.938;30.642;2023-04-25T00:32:23;31.83;;;18.30;;
48925;SDS011;39838;59.938;30.642;2023-04-25T00:34:50;29.30;;;18.45;;
48925;SDS011;39838;59.938;30.642;2023-04-25T00:37:17;33.83;;;19.23;;
48925;SDS011;39838;59.938;30.642;2023-04-25T00:39:46;27.95;;;18.13;;
48925;SDS011;39838;59.938;30.642;2023-04-25T00:42:13;32.88;;;19.08;;
48925;SDS011;39838;59.938;30.642;2023-04-25T00:44:41;35.08;;;19.45;;
48925;SDS011;39838;59.938;30.642;2023-04-25T00:47:10;29.92;;;19.50;;
48925;SDS011;39838;59.938;30.642;2023-04-25T00:49:37;28.95;;;18.92;;
48925;SDS011;39838;59.938;30.642;2023-04-25T00:52:05;34.08;;;20.27;;
48925;SDS011;39838;59.938;30.642;2023-04-25T00:54:32;31.88;;;19.65;;
48925;SDS011;39838;59.938;30.642;2023-04-25T00:57:01;29.73;;;18.80;;
48925;SDS011;39838;59.938;30.642;2023-04-25T00:59:28;35.17;;;19.08;;
48925;SDS011;39838;59.938;30.642;2023-04-25T01:01:56;29.48;;;18.90;;
48925;SDS011;39838;59.938;30.642;2023-04-25T01:04:23;29.73;;;17.88;;
48925;SDS011;39838;59.938;30.642;2023-04-25T01:06:51;26.70;;;17.33;;
48925;SDS011;39838;59.938;30.642;2023-04-25T01:09:18;25.33;;;16.63;;
48925;SDS011;39838;59.938;30.642;2023-04-25T01:11:46;30.55;;;16.70;;
48925;SDS011;39838;59.938;30.642;2023-04-25T01:14:15;25.50;;;16.63;;
48925;SDS011;39838;59.938;30.642;2023-04-25T01:16:42;23.40;;;17.25;;
48925;SDS011;39838;59.938;30.642;2023-04-25T01:19:10;25.80;;;15.95;;
48925;SDS011;39838;59.938;30.642;2023-04-25T01:21:39;21.85;;;15.20;;
48925;SDS011;39838;59.938;30.642;2023-04-25T01:24:06;26.17;;;15.20;;
48925;SDS011;39838;59.938;30.642;2023-04-25T01:26:34;21.08;;;14.15;;
48925;SDS011;39838;59.938;30.642;2023-04-25T01:29:03;23.00;;;14.10;;
48925;SDS011;39838;59.938;30.642;2023-04-25T01:31:30;25.73;;;14.40;;
48925;SDS011;39838;59.938;30.642;2023-04-25T01:33:58;22.98;;;14.18;;
48925;SDS011;39838;59.938;30.642;2023-04-25T01:36:26;25.17;;;15.27;;
48925;SDS011;39838;59.938;30.642;2023-04-25T01:38:55;20.35;;;14.38;;
48925;SDS011;39838;59.938;30.642;2023-04-25T01:41:23;21.67;;;14.50;;
48925;SDS011;39838;59.938;30.642;2023-04-25T01:43:50;24.75;;;14.90;;
48925;SDS011;39838;59.938;30.642;2023-04-25T01:46:17;27.13;;;14.93;;
48925;SDS011;39838;59.938;30.642;2023-04-25T01:48:45;29.58;;;14.75;;
48925;SDS011;39838;59.938;30.642;2023-04-25T01:51:12;21.20;;;13.35;;
48925;SDS011;39838;59.938;30.642;2023-04-25T01:53:40;20.92;;;13.43;;
48925;SDS011;39838;59.938;30.642;2023-04-25T01:56:10;24.70;;;13.68;;
48925;SDS011;39838;59.938;30.642;2023-04-25T01:58:37;20.65;;;13.23;;
48925;SDS011;39838;59.938;30.642;2023-04-25T02:01:04;24.73;;;13.30;;
48925;SDS011;39838;59.938;30.642;2023-04-25T02:03:31;19.98;;;12.88;;
48925;SDS011;39838;59.938;30.642;2023-04-25T02:05:59;25.83;;;12.60;;
48925;SDS011;39838;59.938;30.642;2023-04-25T02:08:26;20.05;;;12.32;;
48925;SDS011;39838;59.938;30.642;2023-04-25T02:10:53;20.58;;;12.20;;
48925;SDS011;39838;59.938;30.642;2023-04-25T02:13:21;21.13;;;12.20;;
48925;SDS011;39838;59.938;30.642;2023-04-25T02:15:49;19.30;;;11.90;;
48925;SDS011;39838;59.938;30.642;2023-04-25T02:18:16;20.15;;;11.48;;
48925;SDS011;39838;59.938;30.642;2023-04-25T02:20:43;20.95;;;11.85;;
48925;SDS011;39838;59.938;30.642;2023-04-25T02:23:11;22.48;;;11.40;;
48925;SDS011;39838;59.938;30.642;2023-04-25T02:25:38;15.73;;;10.68;;
48925;SDS011;39838;59.938;30.642;2023-04-25T02:28:05;15.73;;;10.98;;
48925;SDS011;39838;59.938;30.642;2023-04-25T02:30:34;22.17;;;11.32;;
48925;SDS011;39838;59.938;30.642;2023-04-25T02:33:01;17.00;;;11.05;;
48925;SDS011;39838;59.938;30.642;2023-04-25T02:35:29;18.58;;;11.27;;
48925;SDS011;39838;59.938;30.642;2023-04-25T02:37:56;18.30;;;10.90;;
48925;SDS011;39838;59.938;30.642;2023-04-25T02:40:23;17.50;;;11.45;;
48925;SDS011;39838;59.938;30.642;2023-04-25T02:42:50;19.42;;;10.85;;
48925;SDS011;39838;59.938;30.642;2023-04-25T02:45:17;18.38;;;11.20;;
48925;SDS011;39838;59.938;30.642;2023-04-25T02:47:46;22.52;;;10.90;;
48925;SDS011;39838;59.938;30.642;2023-04-25T02:50:13;14.73;;;10.02;;
48925;SDS011;39838;59.938;30.642;2023-04-25T02:52:40;16.80;;;10.25;;
48925;SDS011;39838;59.938;30.642;2023-04-25T02:55:08;18.98;;;10.32;;
48925;SDS011;39838;59.938;30.642;2023-04-25T02:57:36;16.58;;;10.35;;
48925;SDS011;39838;59.938;30.642;2023-04-25T03:00:03;15.73;;;10.32;;
48925;SDS011;39838;59.938;30.642;2023-04-25T03:02:34;19.40;;;9.65;;
48925;SDS011;39838;59.938;30.642;2023-04-25T03:05:02;13.00;;;9.65;;
48925;SDS011;39838;59.938;30.642;2023-04-25T03:07:31;14.13;;;9.15;;
48925;SDS011;39838;59.938;30.642;2023-04-25T03:09:58;14.45;;;9.23;;
48925;SDS011;39838;59.938;30.642;2023-04-25T03:12:25;21.30;;;8.82;;
48925;SDS011;39838;59.938;30.642;2023-04-25T03:14:52;21.20;;;8.93;;
48925;SDS011;39838;59.938;30.642;2023-04-25T03:17:19;17.65;;;8.80;;
48925;SDS011;39838;59.938;30.642;2023-04-25T03:19:46;15.35;;;8.75;;
48925;SDS011;39838;59.938;30.642;2023-04-25T03:22:15;15.73;;;9.00;;
48925;SDS011;39838;59.938;30.642;2023-04-25T03:24:42;17.02;;;8.90;;
48925;SDS011;39838;59.938;30.642;2023-04-25T03:27:09;12.88;;;7.90;;
48925;SDS011;39838;59.938;30.642;2023-04-25T03:29:37;13.43;;;8.70;;
48925;SDS011;39838;59.938;30.642;2023-04-25T03:32:04;16.45;;;8.30;;
48925;SDS011;39838;59.938;30.642;2023-04-25T03:34:31;15.65;;;8.20;;
48925;SDS011;39838;59.938;30.642;2023-04-25T03:36:59;14.50;;;8.27;;
48925;SDS011;39838;59.938;30.642;2023-04-25T03:39:28;16.58;;;7.97;;
48925;SDS011;39838;59.938;30.642;2023-04-25T03:41:55;12.35;;;8.02;;
48925;SDS011;39838;59.938;30.642;2023-04-25T03:44:22;13.30;;;8.55;;
48925;SDS011;39838;59.938;30.642;2023-04-25T03:46:50;14.20;;;8.27;;
48925;SDS011;39838;59.938;30.642;2023-04-25T03:49:17;16.40;;;8.73;;
48925;SDS011;39838;59.938;30.642;2023-04-25T03:51:44;15.10;;;7.55;;
48925;SDS011;39838;59.938;30.642;2023-04-25T03:54:11;18.00;;;7.65;;
48925;SDS011;39838;59.938;30.642;2023-04-25T03:56:39;15.77;;;7.82;;
48925;SDS011;39838;59.938;30.642;2023-04-25T03:59:07;12.65;;;8.05;;
48925;SDS011;39838;59.938;30.642;2023-04-25T04:01:34;18.95;;;7.68;;
48925;SDS011;39838;59.938;30.642;2023-04-25T04:04:01;22.80;;;7.93;;
48925;SDS011;39838;59.938;30.642;2023-04-25T04:06:29;14.73;;;7.80;;
48925;SDS011;39838;59.938;30.642;2023-04-25T04:08:56;17.58;;;7.80;;
48925;SDS011;39838;59.938;30.642;2023-04-25T04:11:23;17.45;;;7.55;;
48925;SDS011;39838;59.938;30.642;2023-04-25T04:13:51;17.17;;;7.57;;
48925;SDS011;39838;59.938;30.642;2023-04-25T04:16:19;21.50;;;8.13;;
48925;SDS011;39838;59.938;30.642;2023-04-25T04:18:46;12.65;;;6.45;;
48925;SDS011;39838;59.938;30.642;2023-04-25T04:21:13;12.98;;;7.40;;
48925;SDS011;39838;59.938;30.642;2023-04-25T04:23:40;11.43;;;7.32;;
48925;SDS011;39838;59.938;30.642;2023-04-25T04:26:07;12.82;;;7.03;;
48925;SDS011;39838;59.938;30.642;2023-04-25T04:28:35;11.48;;;6.80;;
48925;SDS011;39838;59.938;30.642;2023-04-25T04:31:04;20.05;;;6.70;;
48925;SDS011;39838;59.938;30.642;2023-04-25T04:33:33;14.88;;;6.47;;
48925;SDS011;39838;59.938;30.642;2023-04-25T04:36:00;10.75;;;6.60;;
48925;SDS011;39838;59.938;30.642;2023-04-25T04:38:28;10.93;;;6.40;;
48925;SDS011;39838;59.938;30.642;2023-04-25T04:40:55;18.35;;;6.85;;
48925;SDS011;39838;59.938;30.642;2023-04-25T04:43:23;12.10;;;6.10;;
48925;SDS011;39838;59.938;30.642;2023-04-25T04:45:50;12.73;;;6.03;;
48925;SDS011;39838;59.938;30.642;2023-04-25T04:48:19;13.30;;;5.63;;
48925;SDS011;39838;59.938;30.642;2023-04-25T04:50:46;11.40;;;6.50;;
48925;SDS011;39838;59.938;30.642;2023-04-25T04:53:13;14.70;;;5.90;;
48925;SDS011;39838;59.938;30.642;2023-04-25T04:55:40;13.13;;;6.38;;
48925;SDS011;39838;59.938;30.642;2023-04-25T04:58:08;13.52;;;5.75;;
48925;SDS011;39838;59.938;30.642;2023-04-25T05:00:35;11.50;;;6.57;;
48925;SDS011;39838;59.938;30.642;2023-04-25T05:03:02;9.38;;;5.75;;
48925;SDS011;39838;59.938;30.642;2023-04-25T05:05:32;9.25;;;5.70;;
48925;SDS011;39838;59.938;30.642;2023-04-25T05:07:59;9.02;;;5.70;;
48925;SDS011;39838;59.938;30.642;2023-04-25T05:10:26;11.82;;;5.82;;
48925;SDS011;39838;59.938;30.642;2023-04-25T05:12:53;10.90;;;5.90;;
48925;SDS011;39838;59.938;30.642;2023-04-25T05:15:20;10.18;;;5.57;;
48925;SDS011;39838;59.938;30.642;2023-04-25T05:17:48;10.93;;;5.65;;
48925;SDS011;39838;59.938;30.642;2023-04-25T05:20:15;10.65;;;5.72;;
48925;SDS011;39838;59.938;30.642;2023-04-25T05:22:45;9.95;;;6.35;;
48925;SDS011;39838;59.938;30.642;2023-04-25T05:25:12;18.17;;;5.82;;
48925;SDS011;39838;59.938;30.642;2023-04-25T05:27:39;14.88;;;5.70;;
48925;SDS011;39838;59.938;30.642;2023-04-25T05:30:07;18.23;;;6.03;;
48925;SDS011;39838;59.938;30.642;2023-04-25T05:32:35;14.77;;;5.43;;
48925;SDS011;39838;59.938;30.642;2023-04-25T05:35:02;11.95;;;5.40;;
48925;SDS011;39838;59.938;30.642;2023-04-25T05:37:30;9.52;;;5.35;;
48925;SDS011;39838;59.938;30.642;2023-04-25T05:39:59;14.85;;;5.82;;
48925;SDS011;39838;59.938;30.642;2023-04-25T05:42:26;10.85;;;5.65;;
48925;SDS011;39838;59.938;30.642;2023-04-25T05:44:54;10.15;;;5.10;;
48925;SDS011;39838;59.938;30.642;2023-04-25T05:47:21;11.20;;;5.80;;
48925;SDS011;39838;59.938;30.642;2023-04-25T05:49:48;9.60;;;5.80;;
48925;SDS011;39838;59.938;30.642;2023-04-25T05:52:15;9.43;;;5.38;;
48925;SDS011;39838;59.938;30.642;2023-04-25T05:54:42;13.05;;;5.55;;
48925;SDS011;39838;59.938;30.642;2023-04-25T05:57:19;11.80;;;4.82;;
48925;SDS011;39838;59.938;30.642;2023-04-25T05:59:47;11.82;;;5.50;;
48925;SDS011;39838;59.938;30.642;2023-04-25T06:02:14;16.90;;;5.28;;
48925;SDS011;39838;59.938;30.642;2023-04-25T06:04:42;13.65;;;5.63;;
48925;SDS011;39838;59.938;30.642;2023-04-25T06:07:09;15.63;;;5.90;;
48925;SDS011;39838;59.938;30.642;2023-04-25T06:09:36;11.38;;;5.45;;
48925;SDS011;39838;59.938;30.642;2023-04-25T06:12:04;11.52;;;5.57;;
48925;SDS011;39838;59.938;30.642;2023-04-25T06:14:33;15.90;;;5.18;;
48925;SDS011;39838;59.938;30.642;2023-04-25T06:17:00;18.02;;;5.30;;
48925;SDS011;39838;59.938;30.642;2023-04-25T06:19:32;18.60;;;5.78;;
48925;SDS011;39838;59.938;30.642;2023-04-25T06:21:59;15.18;;;5.88;;
48925;SDS011;39838;59.938;30.642;2023-04-25T06:24:26;11.02;;;5.75;;
48925;SDS011;39838;59.938;30.642;2023-04-25T06:26:54;18.88;;;5.78;;
48925;SDS011;39838;59.938;30.642;2023-04-25T06:29:21;13.82;;;5.63;;
48925;SDS011;39838;59.938;30.642;2023-04-25T06:31:50;16.25;;;5.63;;
48925;SDS011;39838;59.938;30.642;2023-04-25T06:34:17;14.60;;;5.30;;
48925;SDS011;39838;59.938;30.642;2023-04-25T06:36:44;11.90;;;4.88;;
48925;SDS011;39838;59.938;30.642;2023-04-25T06:39:12;8.85;;;5.10;;
48925;SDS011;39838;59.938;30.642;2023-04-25T06:41:39;13.45;;;5.55;;
48925;SDS011;39838;59.938;30.642;2023-04-25T06:44:06;13.25;;;5.05;;
48925;SDS011;39838;59.938;30.642;2023-04-25T06:46:33;13.45;;;5.13;;
48925;SDS011;39838;59.938;30.642;2023-04-25T06:49:03;11.10;;;5.10;;
48925;SDS011;39838;59.938;30.642;2023-04-25T06:51:30;12.15;;;4.60;;
48925;SDS011;39838;59.938;30.642;2023-04-25T06:53:57;9.00;;;4.70;;
48925;SDS011;39838;59.938;30.642;2023-04-25T06:56:26;9.07;;;4.70;;
48925;SDS011;39838;59.938;30.642;2023-04-25T06:58:54;15.05;;;4.55;;
48925;SDS011;39838;59.938;30.642;2023-04-25T07:01:22;17.42;;;5.38;;
48925;SDS011;39838;59.938;30.642;2023-04-25T07:03:49;19.38;;;4.82;;
48925;SDS011;39838;59.938;30.642;2023-04-25T07:06:17;13.70;;;4.57;;
48925;SDS011;39838;59.938;30.642;2023-04-25T07:08:44;9.45;;;4.43;;
48925;SDS011;39838;59.938;30.642;2023-04-25T07:11:11;10.25;;;4.72;;
48925;SDS011;39838;59.938;30.642;2023-04-25T07:13:39;10.10;;;4.50;;
48925;SDS011;39838;59.938;30.642;2023-04-25T07:16:06;10.30;;;4.70;;
48925;SDS011;39838;59.938;30.642;2023-04-25T07:18:33;13.43;;;4.78;;
48925;SDS011;39838;59.938;30.642;2023-04-25T07:21:00;12.60;;;4.70;;
48925;SDS011;39838;59.938;30.642;2023-04-25T07:23:29;7.88;;;4.50;;
48925;SDS011;39838;59.938;30.642;2023-04-25T07:25:56;7.15;;;4.53;;
48925;SDS011;39838;59.938;30.642;2023-04-25T07:28:23;11.40;;;4.30;;
48925;SDS011;39838;59.938;30.642;2023-04-25T07:30:51;9.35;;;4.30;;
48925;SDS011;39838;59.938;30.642;2023-04-25T07:33:18;13.00;;;4.25;;
48925;SDS011;39838;59.938;30.642;2023-04-25T07:35:46;10.80;;;4.40;;
48925;SDS011;39838;59.938;30.642;2023-04-25T07:38:13;9.27;;;4.10;;
48925;SDS011;39838;59.938;30.642;2023-04-25T07:40:41;9.60;;;3.90;;
48925;SDS011;39838;59.938;30.642;2023-04-25T07:43:09;5.88;;;3.70;;
48925;SDS011;39838;59.938;30.642;2023-04-25T07:45:37;6.82;;;3.78;;
48925;SDS011;39838;59.938;30.642;2023-04-25T07:48:04;12.18;;;3.92;;
48925;SDS011;39838;59.938;30.642;2023-04-25T07:50:32;13.30;;;4.03;;
48925;SDS011;39838;59.938;30.642;2023-04-25T07:52:59;11.32;;;3.65;;
48925;SDS011;39838;59.938;30.642;2023-04-25T07:55:26;9.68;;;3.47;;
48925;SDS011;39838;59.938;30.642;2023-04-25T07:57:54;11.57;;;3.78;;
48925;SDS011;39838;59.938;30.642;2023-04-25T08:00:22;9.95;;;4.00;;
48925;SDS011;39838;59.938;30.642;2023-04-25T08:02:49;13.20;;;3.97;;
48925;SDS011;39838;59.938;30.642;2023-04-25T08:05:16;8.73;;;3.85;;
48925;SDS011;39838;59.938;30.642;2023-04-25T08:07:44;13.88;;;4.22;;
48925;SDS011;39838;59.938;30.642;2023-04-25T08:10:11;7.35;;;4.00;;
48925;SDS011;39838;59.938;30.642;2023-04-25T08:12:38;8.57;;;4.00;;
48925;SDS011;39838;59.938;30.642;2023-04-25T08:15:07;8.40;;;3.80;;
48925;SDS011;39838;59.938;30.642;2023-04-25T08:17:35;7.18;;;3.63;;
48925;SDS011;39838;59.938;30.642;2023-04-25T08:20:02;9.50;;;3.70;;
48925;SDS011;39838;59.938;30.642;2023-04-25T08:22:31;10.57;;;3.75;;
48925;SDS011;39838;59.938;30.642;2023-04-25T08:24:59;8.63;;;3.50;;
48925;SDS011;39838;59.938;30.642;2023-04-25T08:27:26;8.90;;;3.95;;
48925;SDS011;39838;59.938;30.642;2023-04-25T08:29:53;5.05;;;3.40;;
48925;SDS011;39838;59.938;30.642;2023-04-25T08:32:22;8.20;;;4.00;;
48925;SDS011;39838;59.938;30.642;2023-04-25T08:34:49;5.35;;;3.50;;
48925;SDS011;39838;59.938;30.642;2023-04-25T08:37:19;7.40;;;3.70;;
48925;SDS011;39838;59.938;30.642;2023-04-25T08:39:46;9.00;;;3.10;;
48925;SDS011;39838;59.938;30.642;2023-04-25T08:42:16;13.88;;;3.30;;
48925;SDS011;39838;59.938;30.642;2023-04-25T08:44:43;9.27;;;3.30;;
48925;SDS011;39838;59.938;30.642;2023-04-25T08:47:12;6.70;;;3.35;;
48925;SDS011;39838;59.938;30.642;2023-04-25T08:49:40;9.55;;;3.25;;
48925;SDS011;39838;59.938;30.642;2023-04-25T08:52:12;10.35;;;3.38;;
48925;SDS011;39838;59.938;30.642;2023-04-25T08:54:41;18.58;;;3.92;;
48925;SDS011;39838;59.938;30.642;2023-04-25T08:57:10;10.63;;;3.60;;
48925;SDS011;39838;59.938;30.642;2023-04-25T08:59:39;11.82;;;3.38;;
48925;SDS011;39838;59.938;30.642;2023-04-25T09:02:10;13.30;;;3.35;;
48925;SDS011;39838;59.938;30.642;2023-04-25T09:04:42;9.35;;;3.13;;
48925;SDS011;39838;59.938;30.642;2023-04-25T09:07:10;14.18;;;3.40;;
48925;SDS011;39838;59.938;30.642;2023-04-25T09:09:38;7.05;;;3.30;;
48925;SDS011;39838;59.938;30.642;2023-04-25T09:12:05;9.13;;;3.25;;
48925;SDS011;39838;59.938;30.642;2023-04-25T09:14:33;6.10;;;3.10;;
48925;SDS011;39838;59.938;30.642;2023-04-25T09:17:01;6.15;;;3.10;;
48925;SDS011;39838;59.938;30.642;2023-04-25T09:19:30;7.80;;;3.33;;
48925;SDS011;39838;59.938;30.642;2023-04-25T09:22:02;9.60;;;3.30;;
48925;SDS011;39838;59.938;30.642;2023-04-25T09:24:34;5.93;;;2.97;;
48925;SDS011;39838;59.938;30.642;2023-04-25T09:27:03;7.45;;;3.03;;
48925;SDS011;39838;59.938;30.642;2023-04-25T09:29:32;9.68;;;3.40;;
48925;SDS011;39838;59.938;30.642;2023-04-25T09:32:16;5.90;;;3.20;;
48925;SDS011;39838;59.938;30.642;2023-04-25T09:34:45;4.57;;;3.00;;
48925;SDS011;39838;59.938;30.642;2023-04-25T09:37:20;7.35;;;3.28;;
48925;SDS011;39838;59.938;30.642;2023-04-25T09:39:48;10.17;;;3.33;;
48925;SDS011;39838;59.938;30.642;2023-04-25T09:42:17;15.45;;;5.13;;
48925;SDS011;39838;59.938;30.642;2023-04-25T09:44:44;6.95;;;3.20;;
48925;SDS011;39838;59.938;30.642;2023-04-25T09:47:13;13.10;;;3.22;;
48925;SDS011;39838;59.938;30.642;2023-04-25T09:49:43;7.10;;;3.10;;
48925;SDS011;39838;59.938;30.642;2023-04-25T09:52:13;9.55;;;3.22;;
48925;SDS011;39838;59.938;30.642;2023-04-25T09:54:43;10.68;;;3.30;;
48925;SDS011;39838;59.938;30.642;2023-04-25T09:57:11;20.48;;;4.00;;
48925;SDS011;39838;59.938;30.642;2023-04-25T09:59:42;13.07;;;3.53;;
48925;SDS011;39838;59.938;30.642;2023-04-25T10:02:11;4.93;;;3.20;;
48925;SDS011;39838;59.938;30.642;2023-04-25T10:04:38;10.70;;;3.10;;
48925;SDS011;39838;59.938;30.642;2023-04-25T10:07:07;11.70;;;3.42;;
48925;SDS011;39838;59.938;30.642;2023-04-25T10:09:36;7.43;;;3.60;;
48925;SDS011;39838;59.938;30.642;2023-04-25T10:12:07;5.93;;;3.10;;
48925;SDS011;39838;59.938;30.642;2023-04-25T10:14:35;9.18;;;3.30;;
48925;SDS011;39838;59.938;30.642;2023-04-25T10:17:02;6.43;;;3.25;;
48925;SDS011;39838;59.938;30.642;2023-04-25T10:19:29;9.95;;;3.38;;
48925;SDS011;39838;59.938;30.642;2023-04-25T10:22:01;9.40;;;3.42;;
48925;SDS011;39838;59.938;30.642;2023-04-25T10:24:32;6.60;;;3.50;;
48925;SDS011;39838;59.938;30.642;2023-04-25T10:27:01;7.68;;;3.20;;
48925;SDS011;39838;59.938;30.642;2023-04-25T10:29:31;9.23;;;3.55;;
48925;SDS011;39838;59.938;30.642;2023-04-25T10:31:58;7.68;;;3.53;;
48925;SDS011;39838;59.938;30.642;2023-04-25T10:34:37;6.85;;;3.42;;
48925;SDS011;39838;59.938;30.642;2023-04-25T10:37:08;10.00;;;3.90;;
48925;SDS011;39838;59.938;30.642;2023-04-25T10:39:36;8.57;;;3.47;;
48925;SDS011;39838;59.938;30.642;2023-04-25T10:42:05;9.18;;;3.47;;
48925;SDS011;39838;59.938;30.642;2023-04-25T10:44:34;7.97;;;3.40;;
48925;SDS011;39838;59.938;30.642;2023-04-25T10:47:05;6.85;;;3.30;;
48925;SDS011;39838;59.938;30.642;2023-04-25T10:49:34;6.28;;;3.70;;
48925;SDS011;39838;59.938;30.642;2023-04-25T10:52:12;5.68;;;3.30;;
48925;SDS011;39838;59.938;30.642;2023-04-25T10:54:46;6.95;;;3.22;;
48925;SDS011;39838;59.938;30.642;2023-04-25T10:57:26;17.90;;;3.30;;
48925;SDS011;39838;59.938;30.642;2023-04-25T10:59:59;7.13;;;3.60;;
48925;SDS011;39838;59.938;30.642;2023-04-25T11:02:31;5.53;;;3.30;;
48925;SDS011;39838;59.938;30.642;2023-04-25T11:05:03;7.72;;;3.40;;
48925;SDS011;39838;59.938;30.642;2023-04-25T11:07:33;7.13;;;3.60;;
48925;SDS011;39838;59.938;30.642;2023-04-25T11:10:05;9.35;;;3.63;;
48925;SDS011;39838;59.938;30.642;2023-04-25T11:12:33;10.05;;;3.10;;
48925;SDS011;39838;59.938;30.642;2023-04-25T11:15:05;9.38;;;3.15;;
48925;SDS011;39838;59.938;30.642;2023-04-25T11:17:33;10.13;;;3.40;;
48925;SDS011;39838;59.938;30.642;2023-04-25T11:20:01;9.07;;;3.33;;
48925;SDS011;39838;59.938;30.642;2023-04-25T11:22:31;7.03;;;3.50;;
48925;SDS011;39838;59.938;30.642;2023-04-25T11:25:04;6.85;;;3.65;;
48925;SDS011;39838;59.938;30.642;2023-04-25T11:27:32;8.40;;;3.30;;
48925;SDS011;39838;59.938;30.642;2023-04-25T11:30:10;6.00;;;3.35;;
48925;SDS011;39838;59.938;30.642;2023-04-25T11:32:39;6.60;;;3.17;;
48925;SDS011;39838;59.938;30.642;2023-04-25T11:35:07;5.90;;;3.50;;
48925;SDS011;39838;59.938;30.642;2023-04-25T11:37:35;7.25;;;3.33;;
48925;SDS011;39838;59.938;30.642;2023-04-25T11:40:02;25.05;;;4.20;;
48925;SDS011;39838;59.938;30.642;2023-04-25T11:42:31;6.90;;;3.38;;
48925;SDS011;39838;59.938;30.642;2023-04-25T11:44:59;6.30;;;3.60;;
48925;SDS011;39838;59.938;30.642;2023-04-25T11:47:32;12.63;;;3.17;;
48925;SDS011;39838;59.938;30.642;2023-04-25T11:50:00;9.13;;;3.92;;
48925;SDS011;39838;59.938;30.642;2023-04-25T11:52:39;5.70;;;3.80;;
48925;SDS011;39838;59.938;30.642;2023-04-25T11:55:08;9.05;;;3.53;;
48925;SDS011;39838;59.938;30.642;2023-04-25T11:57:37;11.32;;;3.38;;
48925;SDS011;39838;59.938;30.642;2023-04-25T12:00:10;9.50;;;3.15;;
48925;SDS011;39838;59.938;30.642;2023-04-25T12:02:44;7.63;;;3.63;;
48925;SDS011;39838;59.938;30.642;2023-04-25T12:05:13;8.45;;;3.65;;
48925;SDS011;39838;59.938;30.642;2023-04-25T12:07:41;9.82;;;3.75;;
48925;SDS011;39838;59.938;30.642;2023-04-25T12:10:10;6.15;;;3.08;;
48925;SDS011;39838;59.938;30.642;2023-04-25T12:12:41;11.73;;;3.20;;
48925;SDS011;39838;59.938;30.642;2023-04-25T12:15:10;8.73;;;3.28;;
48925;SDS011;39838;59.938;30.642;2023-04-25T12:17:40;6.43;;;3.15;;
48925;SDS011;39838;59.938;30.642;2023-04-25T12:20:11;8.85;;;3.50;;
48925;SDS011;39838;59.938;30.642;2023-04-25T12:22:40;4.85;;;3.28;;
48925;SDS011;39838;59.938;30.642;2023-04-25T12:25:11;8.88;;;3.53;;
48925;SDS011;39838;59.938;30.642;2023-04-25T12:27:38;6.45;;;2.92;;
48925;SDS011;39838;59.938;30.642;2023-04-25T12:30:07;9.27;;;3.60;;
48925;SDS011;39838;59.938;30.642;2023-04-25T12:32:36;8.70;;;3.15;;
48925;SDS011;39838;59.938;30.642;2023-04-25T12:35:03;7.43;;;3.20;;
48925;SDS011;39838;59.938;30.642;2023-04-25T12:37:33;9.07;;;3.63;;
48925;SDS011;39838;59.938;30.642;2023-04-25T12:40:01;11.98;;;4.03;;
48925;SDS011;39838;59.938;30.642;2023-04-25T12:42:29;9.88;;;3.40;;
48925;SDS011;39838;59.938;30.642;2023-04-25T12:44:56;8.18;;;3.78;;
48925;SDS011;39838;59.938;30.642;2023-04-25T12:47:24;10.98;;;3.90;;
48925;SDS011;39838;59.938;30.642;2023-04-25T12:49:51;6.15;;;3.83;;
48925;SDS011;39838;59.938;30.642;2023-04-25T12:52:18;7.97;;;3.50;;
48925;SDS011;39838;59.938;30.642;2023-04-25T12:54:47;14.68;;;3.70;;
48925;SDS011;39838;59.938;30.642;2023-04-25T12:57:14;6.93;;;3.55;;
48925;SDS011;39838;59.938;30.642;2023-04-25T12:59:41;7.55;;;3.25;;
48925;SDS011;39838;59.938;30.642;2023-04-25T13:02:09;8.43;;;3.60;;
48925;SDS011;39838;59.938;30.642;2023-04-25T13:04:36;8.10;;;3.80;;
48925;SDS011;39838;59.938;30.642;2023-04-25T13:07:03;9.65;;;3.35;;
48925;SDS011;39838;59.938;30.642;2023-04-25T13:09:30;7.40;;;3.47;;
48925;SDS011;39838;59.938;30.642;2023-04-25T13:11:59;10.15;;;3.60;;
48925;SDS011;39838;59.938;30.642;2023-04-25T13:14:27;11.43;;;3.30;;
48925;SDS011;39838;59.938;30.642;2023-04-25T13:16:54;6.60;;;3.47;;
48925;SDS011;39838;59.938;30.642;2023-04-25T13:19:21;8.73;;;3.25;;
48925;SDS011;39838;59.938;30.642;2023-04-25T13:21:48;8.30;;;3.60;;
48925;SDS011;39838;59.938;30.642;2023-04-25T13:24:15;10.88;;;3.55;;
48925;SDS011;39838;59.938;30.642;2023-04-25T13:26:43;12.35;;;3.30;;
48925;SDS011;39838;59.938;30.642;2023-04-25T13:29:11;5.50;;;3.30;;
48925;SDS011;39838;59.938;30.642;2023-04-25T13:31:38;6.72;;;3.10;;
48925;SDS011;39838;59.938;30.642;2023-04-25T13:34:06;9.50;;;3.35;;
48925;SDS011;39838;59.938;30.642;2023-04-25T13:36:33;8.73;;;3.50;;
48925;SDS011;39838;59.938;30.642;2023-04-25T13:39:00;8.45;;;3.22;;
48925;SDS011;39838;59.938;30.642;2023-04-25T13:41:29;7.18;;;3.40;;
48925;SDS011;39838;59.938;30.642;2023-04-25T13:43:56;6.30;;;3.33;;
48925;SDS011;39838;59.938;30.642;2023-04-25T13:46:25;7.55;;;3.70;;
48925;SDS011;39838;59.938;30.642;2023-04-25T13:48:52;17.80;;;3.88;;
48925;SDS011;39838;59.938;30.642;2023-04-25T13:51:19;8.43;;;3.53;;
48925;SDS011;39838;59.938;30.642;2023-04-25T13:53:46;7.10;;;3.60;;
48925;SDS011;39838;59.938;30.642;2023-04-25T13:56:13;10.32;;;3.83;;
48925;SDS011;39838;59.938;30.642;2023-04-25T13:58:41;12.05;;;3.60;;
48925;SDS011;39838;59.938;30.642;2023-04-25T14:01:08;10.85;;;3.75;;
48925;SDS011;39838;59.938;30.642;2023-04-25T14:03:36;7.07;;;4.03;;
48925;SDS011;39838;59.938;30.642;2023-04-25T14:06:04;7.22;;;3.70;;
48925;SDS011;39838;59.938;30.642;2023-04-25T14:08:31;9.77;;;3.60;;
48925;SDS011;39838;59.938;30.642;2023-04-25T14:10:58;6.40;;;3.50;;
48925;SDS011;39838;59.938;30.642;2023-04-25T14:13:26;8.85;;;4.05;;
48925;SDS011;39838;59.938;30.642;2023-04-25T14:15:53;8.18;;;4.18;;
48925;SDS011;39838;59.938;30.642;2023-04-25T14:18:20;12.30;;;4.10;;
48925;SDS011;39838;59.938;30.642;2023-04-25T14:20:49;9.77;;;4.15;;
48925;SDS011;39838;59.938;30.642;2023-04-25T14:23:16;10.65;;;4.45;;
48925;SDS011;39838;59.938;30.642;2023-04-25T14:25:43;10.32;;;3.85;;
48925;SDS011;39838;59.938;30.642;2023-04-25T14:28:10;11.27;;;4.32;;